Time;durP1;ratioP1;P1;durP2;ratioP2;P2;SDS_P1;SDS_P2;PMS_P1;PMS_P2;Temp;Humidity;BMP_temperature;BMP_pressure;BME280_temperature;BME280_humidity;BME280_pressure;Samples;Min_cycle;Max_cycle;Signal;HPM_P1;HPM_P2
2021/01/05 00:00:59;;;;;;;21.55;14.45;;;;;;;2.62;80.45;98410.94;4861592;29;20825;-88
2021/01/05 00:03:26;;;;;;;22.60;14.07;;;;;;;2.71;80.01;98412.31;4837647;29;20237;-87
2021/01/05 00:05:52;;;;;;;19.55;14.60;;;;;;;2.67;79.95;98408.06;4900170;29;20267;-87
2021/01/05 00:08:20;;;;;;;20.73;14.65;;;;;;;2.71;79.88;98413.16;4888909;29;20242;-86
2021/01/05 00:10:47;;;;;;;20.73;14.90;;;;;;;2.71;79.71;98415.81;4904497;29;20227;-87
2021/01/05 00:13:16;;;;;;;21.77;14.65;;;;;;;2.74;80.11;98409.50;4888688;29;20241;-86
2021/01/05 00:15:47;;;;;;;20.08;15.45;;;;;;;2.70;79.99;98414.09;4888367;29;20833;-85
2021/01/05 00:18:15;;;;;;;21.70;14.50;;;;;;;2.76;80.15;98411.16;4861834;29;20199;-87
2021/01/05 00:20:43;;;;;;;20.90;13.52;;;;;;;2.78;79.51;98404.00;4883533;29;20207;-87
2021/01/05 00:23:14;;;;;;;21.15;14.30;;;;;;;2.81;79.44;98414.47;4911149;29;20242;-85
2021/01/05 00:25:40;;;;;;;20.70;15.60;;;;;;;2.72;79.74;98425.53;4876622;29;20271;-85
2021/01/05 00:28:07;;;;;;;21.92;15.85;;;;;;;2.78;79.90;98421.72;4864416;29;20246;-87
2021/01/05 00:30:33;;;;;;;20.67;14.35;;;;;;;2.75;79.66;98422.72;4891048;29;20227;-87
2021/01/05 00:32:59;;;;;;;21.05;14.70;;;;;;;2.75;79.72;98419.19;4895870;29;20230;-87
2021/01/05 00:35:35;;;;;;;22.60;14.63;;;;;;;2.72;79.91;98414.03;4876319;29;20264;-87
2021/01/05 00:38:06;;;;;;;20.65;14.85;;;;;;;2.72;80.08;98414.91;4891622;29;20238;-87
2021/01/05 00:40:33;;;;;;;22.88;15.60;;;;;;;2.75;80.19;98406.78;4882588;29;20266;-85
2021/01/05 00:42:59;;;;;;;18.13;13.80;;;;;;;2.77;79.50;98410.22;4861863;29;20239;-86
2021/01/05 00:45:34;;;;;;;22.83;14.57;;;;;;;2.73;79.52;98406.00;4882292;29;20291;-86
2021/01/05 00:48:02;;;;;;;19.05;14.13;;;;;;;2.76;79.84;98411.16;4897768;29;20262;-85
2021/01/05 00:50:30;;;;;;;22.63;15.57;;;;;;;2.73;79.82;98410.44;4900313;29;20203;-86
2021/01/05 00:52:57;;;;;;;19.38;14.70;;;;;;;2.72;79.95;98412.25;4876887;29;20288;-87
2021/01/05 00:55:23;;;;;;;20.70;14.45;;;;;;;2.77;79.68;98407.56;4880276;29;20326;-88
2021/01/05 00:57:50;;;;;;;21.80;14.95;;;;;;;2.73;80.09;98413.09;4871694;29;20219;-88
2021/01/05 01:00:28;;;;;;;21.20;14.10;;;;;;;2.68;80.26;98415.97;4900597;29;20236;-85
2021/01/05 01:03:08;;;;;;;19.45;13.88;;;;;;;2.84;79.97;98422.28;4894695;29;20203;-85
2021/01/05 01:05:38;;;;;;;19.70;13.50;;;;;;;2.84;79.62;98416.13;4888766;29;20195;-86
2021/01/05 01:08:08;;;;;;;20.65;13.63;;;;;;;2.95;79.76;98412.03;4858760;29;20215;-86
2021/01/05 01:10:34;;;;;;;19.67;13.95;;;;;;;2.91;79.40;98421.09;4896281;29;20226;-86
2021/01/05 01:13:02;;;;;;;22.63;14.88;;;;;;;2.78;79.68;98414.63;4890516;29;20295;-85
2021/01/05 01:15:32;;;;;;;20.55;14.15;;;;;;;2.80;79.94;98419.84;4883364;29;20238;-85
2021/01/05 01:18:03;;;;;;;18.98;12.82;;;;;;;2.93;79.67;98421.88;4874972;29;20224;-86
2021/01/05 01:20:35;;;;;;;19.88;14.05;;;;;;;2.88;79.30;98418.56;4893653;29;20239;-86
2021/01/05 01:23:13;;;;;;;21.52;13.30;;;;;;;2.91;79.27;98421.09;4889623;29;20230;-86
2021/01/05 01:26:08;;;;;;;25.83;14.70;;;;;;;2.92;79.12;98416.63;4821419;28;20224;-87
2021/01/05 01:29:33;;;;;;;21.83;14.10;;;;;;;2.86;79.41;98424.88;4882966;29;20241;-85
2021/01/05 01:32:08;;;;;;;23.33;14.88;;;;;;;2.79;79.52;98420.78;4845775;29;20227;-87
2021/01/05 01:34:37;;;;;;;22.98;14.95;;;;;;;2.78;79.51;98425.25;4850713;29;20216;-85
2021/01/05 01:37:06;;;;;;;23.25;14.80;;;;;;;2.77;79.65;98414.69;4908495;29;20222;-86
2021/01/05 01:39:35;;;;;;;22.92;15.63;;;;;;;2.74;79.65;98418.34;4888760;29;20231;-87
2021/01/05 01:42:05;;;;;;;21.88;14.40;;;;;;;2.84;79.82;98419.63;4900930;29;20227;-88
2021/01/05 01:44:39;;;;;;;21.90;14.38;;;;;;;2.74;79.96;98415.69;4888330;29;20196;-87
2021/01/05 01:47:26;;;;;;;19.98;14.68;;;;;;;2.82;79.71;98421.50;4867873;29;20303;-89
2021/01/05 01:50:17;;;;;;;21.20;15.25;;;;;;;2.83;79.88;98422.38;4892130;29;20231;-87
2021/01/05 01:53:23;;;;;;;21.83;14.70;;;;;;;2.92;79.26;98421.94;4902247;29;20222;-89
2021/01/05 01:56:15;;;;;;;23.58;14.80;;;;;;;2.80;79.62;98418.06;4896638;29;20258;-87
2021/01/05 01:59:19;;;;;;;20.35;14.23;;;;;;;2.81;79.46;98427.75;4879239;29;20238;-89
2021/01/05 02:02:02;;;;;;;23.95;15.63;;;;;;;2.84;79.44;98422.28;4894178;29;20302;-87
2021/01/05 02:05:00;;;;;;;22.52;14.95;;;;;;;2.83;79.55;98423.22;4904436;29;20261;-89
2021/01/05 02:08:09;;;;;;;20.50;14.75;;;;;;;2.78;79.91;98430.56;4897628;29;20311;-89
2021/01/05 02:11:12;;;;;;;23.00;16.15;;;;;;;2.77;79.78;98428.81;4913101;29;20222;-87
2021/01/05 02:14:26;;;;;;;23.70;15.50;;;;;;;2.76;79.90;98435.03;4877883;29;20298;-87
2021/01/05 02:16:55;;;;;;;22.20;14.63;;;;;;;2.85;79.36;98436.44;4891528;29;20242;-87
2021/01/05 02:19:35;;;;;;;21.88;15.27;;;;;;;2.86;79.33;98428.41;4877646;28;20231;-86
2021/01/05 02:22:25;;;;;;;23.33;15.02;;;;;;;2.76;79.33;98432.38;4859903;29;20314;-86
2021/01/05 02:25:11;;;;;;;21.80;15.55;;;;;;;2.78;79.57;98434.97;4863690;29;20246;-88
2021/01/05 02:27:52;;;;;;;24.95;16.25;;;;;;;2.77;79.60;98434.09;4890306;29;20234;-88
2021/01/05 02:30:28;;;;;;;24.10;16.20;;;;;;;2.78;79.63;98435.84;4900267;29;20234;-87
2021/01/05 02:33:27;;;;;;;25.25;16.42;;;;;;;2.83;79.68;98433.00;4901596;29;20211;-86
2021/01/05 02:36:12;;;;;;;23.80;15.75;;;;;;;2.82;79.34;98426.81;4906298;29;20226;-85
2021/01/05 02:39:04;;;;;;;24.65;16.17;;;;;;;2.86;79.35;98417.78;4899247;29;20282;-87
2021/01/05 02:41:58;;;;;;;23.75;14.63;;;;;;;2.80;79.58;98414.53;4903271;29;20211;-88
2021/01/05 02:45:12;;;;;;;22.73;14.65;;;;;;;2.84;79.19;98430.25;4889512;29;20295;-86
2021/01/05 02:48:31;;;;;;;26.13;15.40;;;;;;;2.88;78.96;98415.91;4873781;29;20253;-88
2021/01/05 02:51:50;;;;;;;24.45;15.90;;;;;;;2.74;79.48;98421.00;4881374;29;20670;-88
2021/01/05 02:55:07;;;;;;;23.05;15.02;;;;;;;2.66;79.44;98417.84;4858158;29;20227;-87
2021/01/05 02:58:16;;;;;;;22.90;16.60;;;;;;;2.69;79.93;98424.81;4930981;23;20506;-88
2021/01/05 03:01:29;;;;;;;22.45;15.95;;;;;;;2.69;79.80;98420.34;4915915;29;20231;-86
2021/01/05 03:04:16;;;;;;;23.65;15.52;;;;;;;2.73;79.64;98416.63;4901209;29;20249;-87
2021/01/05 03:07:25;;;;;;;23.77;15.80;;;;;;;2.77;79.22;98423.50;4895103;29;20246;-88
2021/01/05 03:10:33;;;;;;;23.95;16.27;;;;;;;2.75;79.76;98425.38;4876413;29;20242;-88
2021/01/05 03:13:40;;;;;;;25.88;16.70;;;;;;;2.84;79.51;98419.63;4879993;29;20237;-86
2021/01/05 03:16:33;;;;;;;24.17;15.20;;;;;;;2.80;79.43;98418.06;4884442;29;20278;-88
2021/01/05 03:20:06;;;;;;;26.15;16.50;;;;;;;2.92;79.71;98416.63;4900907;29;20239;-88
2021/01/05 03:22:58;;;;;;;21.75;15.70;;;;;;;2.91;78.79;98425.53;4883604;29;20210;-85
2021/01/05 03:25:47;;;;;;;27.50;15.13;;;;;;;2.85;78.95;98424.03;4892533;29;20234;-87
2021/01/05 03:28:46;;;;;;;22.77;15.45;;;;;;;2.88;78.93;98426.53;4873088;29;20377;-87
2021/01/05 03:31:44;;;;;;;26.70;15.75;;;;;;;2.73;78.99;98419.28;4898896;29;20229;-87
2021/01/05 03:34:33;;;;;;;23.33;15.27;;;;;;;2.78;79.45;98422.59;4877664;29;20236;-89
2021/01/05 03:37:18;;;;;;;25.13;16.98;;;;;;;2.81;79.74;98421.56;4897060;29;20232;-88
2021/01/05 03:40:09;;;;;;;21.45;15.10;;;;;;;2.77;79.51;98423.50;4905513;29;20250;-86
2021/01/05 03:42:55;;;;;;;22.80;16.40;;;;;;;2.80;79.23;98423.38;4907437;29;20278;-87
2021/01/05 03:45:44;;;;;;;24.02;15.40;;;;;;;2.87;78.76;98424.81;4888534;29;20237;-89
2021/01/05 03:48:29;;;;;;;24.27;14.93;;;;;;;2.82;78.73;98425.97;4889883;29;20661;-88
2021/01/05 03:51:19;;;;;;;21.75;15.27;;;;;;;2.83;78.85;98417.91;4895339;29;20318;-87
2021/01/05 03:54:04;;;;;;;21.95;15.35;;;;;;;2.81;78.99;98425.09;4892584;29;20254;-88
2021/01/05 03:56:49;;;;;;;23.63;15.20;;;;;;;2.83;78.89;98425.88;4907555;29;20202;-88
2021/01/05 03:59:34;;;;;;;25.70;15.73;;;;;;;2.87;78.79;98423.94;4894915;29;20225;-87
2021/01/05 04:02:22;;;;;;;23.45;15.40;;;;;;;2.83;79.15;98425.03;4888738;29;20310;-87
2021/01/05 04:04:53;;;;;;;23.80;15.90;;;;;;;2.92;78.76;98417.50;4888781;28;20235;-88
2021/01/05 04:07:19;;;;;;;23.27;14.93;;;;;;;2.80;79.09;98407.44;4889699;29;20239;-88
2021/01/05 04:09:50;;;;;;;25.70;15.75;;;;;;;2.77;79.01;98420.00;4887126;29;20267;-88
2021/01/05 04:12:17;;;;;;;19.20;13.98;;;;;;;2.87;78.69;98416.84;4893233;29;20374;-87
2021/01/05 04:14:44;;;;;;;21.38;15.05;;;;;;;2.73;79.10;98416.63;4907408;29;20282;-88
2021/01/05 04:17:12;;;;;;;26.15;15.05;;;;;;;2.74;79.13;98421.00;4877909;29;20233;-87
2021/01/05 04:19:39;;;;;;;25.73;14.98;;;;;;;2.72;79.28;98417.56;4901806;29;20297;-87
2021/01/05 04:22:05;;;;;;;25.20;17.05;;;;;;;2.78;79.27;98425.25;4899626;29;20234;-88
2021/01/05 04:24:32;;;;;;;25.58;16.25;;;;;;;2.75;79.49;98416.53;4891837;29;20244;-86
2021/01/05 04:27:00;;;;;;;22.88;15.60;;;;;;;2.76;79.24;98420.94;4964388;23;20224;-89
2021/01/05 04:29:28;;;;;;;23.13;15.60;;;;;;;2.82;78.95;98426.81;4931329;29;20244;-87
2021/01/05 04:31:55;;;;;;;22.63;14.57;;;;;;;2.70;79.11;98422.06;4928276;29;20223;-89
2021/01/05 04:34:23;;;;;;;21.60;15.45;;;;;;;2.68;79.49;98423.06;4939490;28;20261;-88
2021/01/05 04:36:55;;;;;;;21.98;15.27;;;;;;;2.81;79.15;98429.53;4903704;29;20211;-88
2021/01/05 04:39:30;;;;;;;24.30;15.68;;;;;;;2.82;78.74;98434.75;4902196;29;20238;-89
2021/01/05 04:42:16;;;;;;;22.90;13.15;;;;;;;2.85;78.60;98434.66;4924905;29;20202;-89
2021/01/05 04:45:00;;;;;;;24.42;14.57;;;;;;;2.88;78.68;98441.63;4913190;29;20217;-88
2021/01/05 04:47:51;;;;;;;24.40;14.70;;;;;;;2.84;78.59;98432.88;4912456;29;20236;-89
2021/01/05 04:50:41;;;;;;;24.42;15.15;;;;;;;2.84;78.58;98432.06;4914110;29;20225;-88
2021/01/05 04:53:17;;;;;;;27.63;15.95;;;;;;;2.84;78.29;98438.19;4895701;29;20241;-88
2021/01/05 04:55:58;;;;;;;22.58;14.90;;;;;;;2.85;78.50;98434.66;4900743;29;20217;-87
2021/01/05 04:58:32;;;;;;;20.73;14.30;;;;;;;2.88;78.28;98434.50;4878264;29;20256;-89
2021/01/05 05:01:00;;;;;;;23.80;14.95;;;;;;;2.95;78.13;98441.22;4921721;29;20226;-89
2021/01/05 05:03:37;;;;;;;25.20;15.82;;;;;;;2.87;78.31;98429.25;4909436;29;20230;-87
2021/01/05 05:06:34;;;;;;;23.38;15.57;;;;;;;2.90;78.49;98429.97;4913981;29;20727;-88
2021/01/05 05:09:34;;;;;;;24.98;14.52;;;;;;;3.19;77.39;98432.13;4882983;29;20238;-88
2021/01/05 05:12:46;;;;;;;21.70;13.98;;;;;;;3.02;77.76;98439.16;4911233;29;20247;-88
2021/01/05 05:15:15;;;;;;;22.63;14.25;;;;;;;2.93;77.70;98445.75;4905740;28;20245;-89
2021/01/05 05:18:19;;;;;;;21.55;15.23;;;;;;;2.90;78.20;98451.19;4946440;29;20209;-88
2021/01/05 05:21:24;;;;;;;19.48;12.85;;;;;;;2.92;78.29;98444.03;4903345;29;20321;-87
2021/01/05 05:24:16;;;;;;;20.65;13.20;;;;;;;2.99;77.63;98440.16;4892238;29;20209;-89
2021/01/05 05:26:48;;;;;;;23.58;13.20;;;;;;;3.00;77.62;98447.19;4941776;29;20201;-87
2021/01/05 05:30:01;;;;;;;23.13;13.73;;;;;;;2.92;77.64;98454.66;4938038;28;20305;-87
2021/01/05 05:32:47;;;;;;;20.73;13.05;;;;;;;2.89;78.51;98459.25;4919361;29;20685;-88
2021/01/05 05:35:36;;;;;;;19.80;14.45;;;;;;;2.99;78.17;98461.41;4918480;29;20226;-86
2021/01/05 05:38:44;;;;;;;22.63;14.07;;;;;;;2.89;78.59;98465.41;4915008;29;20225;-87
2021/01/05 05:41:37;;;;;;;24.95;14.35;;;;;;;2.86;78.89;98454.94;4917502;29;20217;-88
2021/01/05 05:44:41;;;;;;;23.05;13.88;;;;;;;2.74;79.31;98455.50;4901843;29;20554;-87
2021/01/05 05:47:37;;;;;;;20.65;13.57;;;;;;;3.26;77.92;98459.25;4925386;29;20262;-89
2021/01/05 05:50:38;;;;;;;23.15;14.25;;;;;;;3.11;78.20;98460.84;4915803;29;20242;-88
2021/01/05 05:53:10;;;;;;;21.48;12.85;;;;;;;3.03;78.46;98462.13;4911502;29;20283;-88
2021/01/05 05:56:00;;;;;;;21.85;13.23;;;;;;;2.96;78.64;98460.69;4919819;29;20210;-88
2021/01/05 05:58:35;;;;;;;20.00;13.35;;;;;;;2.93;78.59;98464.34;4927877;29;20248;-87
2021/01/05 06:01:03;;;;;;;24.67;14.63;;;;;;;2.90;78.74;98469.78;4920320;29;20259;-87
2021/01/05 06:03:30;;;;;;;21.60;14.35;;;;;;;2.91;78.73;98465.34;4945009;29;20209;-87
2021/01/05 06:05:56;;;;;;;22.15;14.27;;;;;;;2.94;78.60;98467.84;4945615;29;20253;-87
2021/01/05 06:08:24;;;;;;;20.95;14.85;;;;;;;2.92;78.58;98459.97;4938413;29;20217;-88
2021/01/05 06:10:53;;;;;;;21.20;13.98;;;;;;;2.99;78.52;98477.34;4913845;29;20237;-88
2021/01/05 06:16:12;;;;;;;20.02;14.32;;;;;;;2.86;78.17;98478.84;4881909;29;20263;-89
2021/01/05 06:22:18;;;;;;;20.63;14.05;;;;;;;2.87;78.48;98485.88;4914184;23;20253;-88
2021/01/05 06:24:44;;;;;;;21.10;14.10;;;;;;;2.94;78.71;98481.13;4871485;29;20231;-89
2021/01/05 06:27:11;;;;;;;21.77;14.60;;;;;;;2.81;78.43;98488.78;4850553;29;20200;-89
2021/01/05 06:29:37;;;;;;;21.48;14.70;;;;;;;2.84;78.46;98478.03;4871745;29;20215;-89
2021/01/05 06:32:04;;;;;;;22.08;14.18;;;;;;;2.87;78.52;98477.91;4853449;29;20227;-89
2021/01/05 06:34:33;;;;;;;20.35;13.07;;;;;;;2.84;78.45;98478.03;4884986;29;20232;-89
2021/01/05 06:37:01;;;;;;;22.65;14.75;;;;;;;2.86;78.57;98470.88;4871267;29;20283;-88
2021/01/05 06:39:28;;;;;;;20.50;13.60;;;;;;;2.87;78.44;98485.88;4880275;29;20243;-87
2021/01/05 06:41:55;;;;;;;22.38;14.52;;;;;;;2.96;78.32;98482.78;5155400;23;20218;-88
2021/01/05 06:44:21;;;;;;;20.88;13.43;;;;;;;2.97;78.20;98473.03;4863916;29;20231;-88
2021/01/05 06:46:50;;;;;;;22.05;14.10;;;;;;;2.94;78.21;98478.47;4877774;29;20306;-88
2021/01/05 06:49:35;;;;;;;25.38;13.63;;;;;;;2.90;78.77;98488.38;4840690;29;20244;-88
2021/01/05 06:52:01;;;;;;;23.73;15.32;;;;;;;2.89;78.68;98485.81;4831649;29;20607;-88
2021/01/05 06:54:27;;;;;;;25.10;15.65;;;;;;;2.83;79.14;98491.41;4825312;29;20697;-88
2021/01/05 06:56:55;;;;;;;21.88;15.00;;;;;;;2.90;79.09;98493.69;4853105;29;20206;-89
2021/01/05 07:00:46;;;;;;;;;;;;;;;;;;;;;
2021/01/05 07:03:06;;;;;;;23.40;13.82;;;;;;;2.99;78.43;98495.94;4820761;29;20260;-88
2021/01/05 07:05:33;;;;;;;20.60;13.70;;;;;;;2.95;78.32;98504.97;4846338;29;20290;-88
2021/01/05 07:07:59;;;;;;;22.98;14.82;;;;;;;2.93;78.76;98504.19;4860242;29;20227;-88
2021/01/05 07:10:25;;;;;;;21.15;14.93;;;;;;;2.93;78.90;98505.97;4853411;29;20228;-88
2021/01/05 07:12:51;;;;;;;23.58;14.43;;;;;;;2.86;78.88;98501.84;4855888;29;20274;-88
2021/01/05 07:15:19;;;;;;;21.08;14.52;;;;;;;2.93;78.72;98509.50;4856694;29;20248;-89
2021/01/05 07:17:46;;;;;;;22.45;14.90;;;;;;;2.88;78.63;98503.50;4818815;29;20208;-88
2021/01/05 07:20:14;;;;;;;22.35;14.52;;;;;;;2.86;78.92;98508.03;4831330;29;20299;-89
2021/01/05 07:22:40;;;;;;;20.33;14.38;;;;;;;2.87;79.04;98512.41;4846099;29;20716;-89
2021/01/05 07:25:11;;;;;;;21.52;15.07;;;;;;;2.82;79.22;98509.09;4846658;29;20568;-89
2021/01/05 07:27:37;;;;;;;21.73;14.50;;;;;;;2.90;78.81;98512.25;4847370;29;20228;-89
2021/01/05 07:30:05;;;;;;;19.83;14.25;;;;;;;2.87;78.80;98514.19;4872635;29;20286;-88
2021/01/05 07:32:36;;;;;;;22.58;14.70;;;;;;;2.77;79.00;98510.25;4864548;29;20215;-88
2021/01/05 07:35:17;;;;;;;22.27;14.70;;;;;;;2.82;78.97;98506.44;4859035;29;20708;-88
2021/01/05 07:37:44;;;;;;;22.90;14.55;;;;;;;2.88;78.97;98515.94;4856261;29;20295;-88
2021/01/05 07:40:13;;;;;;;21.17;13.90;;;;;;;2.94;78.62;98503.25;4871263;29;20294;-89
2021/01/05 07:42:39;;;;;;;22.10;14.73;;;;;;;2.98;78.30;98507.50;4839785;29;20235;-89
2021/01/05 07:45:09;;;;;;;18.30;13.32;;;;;;;2.91;78.70;98518.44;4860745;29;20231;-89
2021/01/05 07:47:37;;;;;;;20.88;13.32;;;;;;;2.88;78.28;98513.28;4856464;29;20191;-89
2021/01/05 07:50:08;;;;;;;19.67;13.43;;;;;;;2.91;78.33;98514.00;4864654;29;20238;-89
2021/01/05 07:52:41;;;;;;;20.75;14.48;;;;;;;2.83;78.82;98510.81;4870955;29;20260;-89
2021/01/05 07:55:15;;;;;;;17.15;12.95;;;;;;;2.99;78.75;98514.53;4853233;29;20258;-89
2021/01/05 07:57:41;;;;;;;19.75;13.15;;;;;;;2.94;78.72;98518.28;4858394;29;20235;-89
2021/01/05 08:00:09;;;;;;;20.42;13.85;;;;;;;2.94;78.64;98520.94;4871045;29;20230;-88
2021/01/05 08:02:39;;;;;;;20.98;13.98;;;;;;;2.96;78.94;98516.47;4867044;29;20207;-88
2021/01/05 08:05:08;;;;;;;24.25;14.98;;;;;;;2.98;78.85;98519.91;4847426;29;20234;-89
2021/01/05 08:07:35;;;;;;;19.25;13.43;;;;;;;3.01;78.88;98514.47;4848572;29;20227;-89
2021/01/05 08:10:05;;;;;;;21.50;13.75;;;;;;;3.03;78.33;98521.41;4834340;29;20325;-90
2021/01/05 08:12:40;;;;;;;21.63;13.95;;;;;;;2.90;78.73;98524.69;4860960;29;20253;-89
2021/01/05 08:15:07;;;;;;;20.60;13.55;;;;;;;2.88;79.00;98519.44;4835922;29;20306;-88
2021/01/05 08:17:34;;;;;;;23.77;15.23;;;;;;;2.87;79.68;98517.72;4830727;29;20204;-89
2021/01/05 08:20:09;;;;;;;22.25;14.98;;;;;;;2.85;79.59;98522.25;4823383;29;20228;-89
2021/01/05 08:22:41;;;;;;;19.90;13.75;;;;;;;2.94;79.97;98526.25;4855057;29;20223;-89
2021/01/05 08:25:08;;;;;;;19.90;13.35;;;;;;;2.99;80.11;98530.47;4841950;29;20240;-88
2021/01/05 08:27:41;;;;;;;23.63;16.02;;;;;;;2.98;79.96;98523.44;4834103;29;20227;-89
2021/01/05 08:30:18;;;;;;;23.98;15.30;;;;;;;2.91;80.23;98527.28;4856587;29;20227;-88
2021/01/05 08:32:50;;;;;;;25.75;15.18;;;;;;;2.92;80.33;98523.69;4854315;29;20299;-88
2021/01/05 08:35:18;;;;;;;22.23;15.10;;;;;;;2.94;80.51;98528.91;4865409;29;20262;-88
2021/01/05 08:37:46;;;;;;;25.27;15.80;;;;;;;2.97;80.20;98529.63;4865086;29;20232;-89
2021/01/05 08:40:19;;;;;;;23.67;16.30;;;;;;;2.89;80.23;98523.81;4849711;29;20235;-88
2021/01/05 08:42:47;;;;;;;21.80;15.45;;;;;;;2.80;80.56;98524.25;4857673;29;20279;-88
2021/01/05 08:45:16;;;;;;;26.48;17.02;;;;;;;2.79;80.84;98533.13;4834848;29;20204;-88
2021/01/05 08:47:42;;;;;;;34.40;24.35;;;;;;;2.72;81.32;98526.38;4879963;29;20203;-88
2021/01/05 08:50:16;;;;;;;26.67;16.48;;;;;;;2.76;81.33;98533.25;4867146;29;20750;-88
2021/01/05 08:52:42;;;;;;;32.38;18.13;;;;;;;2.83;81.18;98524.09;4856205;29;20296;-89
2021/01/05 08:55:08;;;;;;;44.90;26.65;;;;;;;2.84;80.84;98522.31;4854931;29;20230;-88
2021/01/05 08:57:35;;;;;;;39.80;25.15;;;;;;;2.95;80.41;98515.59;4853282;29;20241;-89
2021/01/05 09:00:01;;;;;;;30.98;21.27;;;;;;;3.06;80.59;98521.28;4848949;29;20236;-88
2021/01/05 09:02:28;;;;;;;23.70;16.38;;;;;;;3.03;79.65;98521.41;4853475;29;20203;-89
2021/01/05 09:04:54;;;;;;;22.58;15.70;;;;;;;3.02;80.30;98521.50;4858062;29;20743;-89
2021/01/05 09:07:22;;;;;;;28.10;18.88;;;;;;;3.05;80.36;98530.19;4848423;29;20247;-89
2021/01/05 09:09:51;;;;;;;27.15;17.35;;;;;;;3.16;79.71;98522.56;4855385;29;20238;-89
2021/01/05 09:12:22;;;;;;;27.00;18.00;;;;;;;3.21;80.05;98523.22;4817387;29;20287;-89
2021/01/05 09:14:48;;;;;;;27.08;19.10;;;;;;;3.09;79.72;98525.59;4864115;29;20226;-89
2021/01/05 09:17:16;;;;;;;22.95;16.15;;;;;;;3.20;79.59;98521.50;4865302;29;20231;-89
2021/01/05 09:19:42;;;;;;;22.42;15.98;;;;;;;3.36;79.73;98527.84;4857284;29;20235;-89
2021/01/05 09:22:08;;;;;;;29.08;18.48;;;;;;;3.39;79.39;98519.72;4852062;29;20256;-90
2021/01/05 09:24:35;;;;;;;31.60;19.33;;;;;;;3.26;79.58;98520.34;4851147;29;20231;-90
2021/01/05 09:27:01;;;;;;;24.52;16.90;;;;;;;3.40;79.57;98532.06;4865007;29;20274;-89
2021/01/05 09:29:30;;;;;;;22.90;15.65;;;;;;;3.35;79.41;98528.75;4847909;29;20254;-88
2021/01/05 09:31:56;;;;;;;22.05;15.60;;;;;;;3.34;79.48;98527.03;4841655;29;20856;-88
2021/01/05 09:34:24;;;;;;;24.75;16.73;;;;;;;3.35;79.62;98526.09;4854779;29;20223;-89
2021/01/05 09:36:54;;;;;;;22.77;15.15;;;;;;;3.37;79.52;98526.91;4875473;29;20224;-88
2021/01/05 09:39:23;;;;;;;21.42;15.35;;;;;;;3.33;78.97;98522.66;4852788;29;20231;-89
2021/01/05 09:42:14;;;;;;;23.55;15.73;;;;;;;3.25;79.55;98522.16;4877276;29;20257;-89
2021/01/05 09:44:47;;;;;;;28.13;17.25;;;;;;;3.35;79.26;98517.28;4838947;29;20227;-88
2021/01/05 09:47:21;;;;;;;23.30;16.05;;;;;;;3.42;78.89;98514.28;4838910;29;20224;-86
2021/01/05 09:49:48;;;;;;;30.55;18.85;;;;;;;3.27;79.08;98517.63;4842690;29;20235;-85
2021/01/05 09:52:15;;;;;;;22.67;15.63;;;;;;;3.24;79.69;98515.13;4847745;29;20360;-86
2021/01/05 09:54:48;;;;;;;24.00;16.27;;;;;;;3.26;79.24;98507.94;4849075;29;20236;-86
2021/01/05 09:57:15;;;;;;;24.85;16.33;;;;;;;3.28;79.44;98510.53;4848466;29;20224;-86
2021/01/05 09:59:41;;;;;;;23.65;15.90;;;;;;;3.31;79.13;98515.69;4863933;29;20227;-86
2021/01/05 10:02:07;;;;;;;25.88;16.27;;;;;;;3.36;79.48;98527.84;4842103;29;20242;-85
2021/01/05 10:04:33;;;;;;;36.80;17.80;;;;;;;3.32;79.32;98520.06;4848379;29;20216;-87
2021/01/05 10:06:59;;;;;;;25.52;16.27;;;;;;;3.33;79.28;98522.66;4840103;29;20231;-87
2021/01/05 10:09:25;;;;;;;25.73;16.95;;;;;;;3.38;79.52;98520.66;4832818;29;20326;-87
2021/01/05 10:11:52;;;;;;;27.83;17.17;;;;;;;3.49;79.52;98513.06;4851270;29;20229;-85
2021/01/05 10:14:20;;;;;;;24.65;16.70;;;;;;;3.53;79.12;98509.28;4844665;29;20227;-86
2021/01/05 10:16:57;;;;;;;26.90;15.70;;;;;;;3.51;78.29;98513.84;4865700;29;20226;-88
2021/01/05 10:19:25;;;;;;;22.90;15.82;;;;;;;3.54;78.78;98505.69;4889996;29;20242;-88
2021/01/05 10:21:52;;;;;;;24.92;16.27;;;;;;;3.61;78.19;98511.59;4872385;29;20318;-85
2021/01/05 10:24:19;;;;;;;28.88;17.38;;;;;;;3.59;77.95;98514.31;4828718;29;20274;-87
2021/01/05 10:26:57;;;;;;;26.25;18.02;;;;;;;3.37;78.59;98505.66;4864807;29;20216;-89
2021/01/05 10:29:31;;;;;;;27.17;17.70;;;;;;;3.37;78.89;98508.31;4810999;29;20231;-88
2021/01/05 10:32:20;;;;;;;27.17;19.67;;;;;;;3.56;78.30;98506.50;4786894;29;20366;-89
2021/01/05 10:34:47;;;;;;;27.75;17.25;;;;;;;3.59;77.68;98509.00;4837592;29;20290;-89
2021/01/05 10:37:13;;;;;;;27.38;18.13;;;;;;;3.54;78.63;98503.03;4868842;29;20230;-89
2021/01/05 10:39:42;;;;;;;24.70;16.75;;;;;;;3.58;78.49;98511.72;4833509;29;20235;-88
2021/01/05 10:42:09;;;;;;;28.27;19.60;;;;;;;3.62;78.79;98511.53;4849761;29;20268;-89
2021/01/05 10:44:38;;;;;;;23.90;17.10;;;;;;;3.71;78.51;98503.09;4847354;29;20214;-89
2021/01/05 10:47:16;;;;;;;;;;;;;;;;;;;;;
2021/01/05 10:50:30;;;;;;;24.65;16.45;;;;;;;3.59;78.05;98497.53;4829388;29;20321;-87
2021/01/05 10:53:10;;;;;;;23.95;15.38;;;;;;;3.65;78.00;98506.06;4762085;29;20240;-88
2021/01/05 10:56:15;;;;;;;21.80;15.18;;;;;;;3.68;78.07;98500.63;4803725;29;20228;-86
2021/01/05 10:58:48;;;;;;;23.88;16.08;;;;;;;3.54;78.35;98513.66;4785535;29;20237;-84
2021/01/05 11:01:18;;;;;;;23.90;15.65;;;;;;;3.41;78.80;98519.66;4781556;29;20252;-84
2021/01/05 11:03:47;;;;;;;23.77;14.85;;;;;;;3.33;79.42;98506.72;4789001;29;20229;-84
2021/01/05 11:06:16;;;;;;;25.35;16.15;;;;;;;3.38;79.01;98511.81;4785133;29;20202;-88
2021/01/05 11:08:42;;;;;;;24.40;14.80;;;;;;;3.50;78.59;98503.25;4787211;29;20207;-86
2021/01/05 11:11:16;;;;;;;23.55;14.82;;;;;;;3.54;78.35;98503.03;4784718;29;20222;-85
2021/01/05 11:13:44;;;;;;;23.80;16.20;;;;;;;3.42;79.50;98508.97;4779189;29;20248;-89
2021/01/05 11:16:13;;;;;;;27.13;16.08;;;;;;;3.35;79.34;98512.81;4789452;29;20356;-88
2021/01/05 11:18:44;;;;;;;26.70;16.73;;;;;;;3.24;79.82;98512.47;4785001;29;20228;-88
2021/01/05 11:21:15;;;;;;;26.63;18.45;;;;;;;3.32;80.15;98507.66;4827025;29;20699;-89
2021/01/05 11:23:43;;;;;;;30.55;17.42;;;;;;;3.31;79.85;98511.25;4866535;29;20208;-88
2021/01/05 11:26:11;;;;;;;29.17;19.30;;;;;;;3.45;79.81;98510.59;4825622;29;20531;-88
2021/01/05 11:28:51;;;;;;;29.42;18.02;;;;;;;3.22;80.45;98503.69;4833821;29;20269;-88
2021/01/05 11:31:19;;;;;;;29.45;18.15;;;;;;;3.17;81.04;98497.75;4830519;29;20263;-88
2021/01/05 11:33:47;;;;;;;33.95;20.60;;;;;;;3.07;81.35;98496.44;4809814;29;20239;-88
2021/01/05 11:36:26;;;;;;;36.30;20.52;;;;;;;3.22;81.13;98502.84;4879376;29;20238;-88
2021/01/05 11:38:55;;;;;;;30.88;20.60;;;;;;;3.30;81.07;98498.03;4849565;29;20709;-88
2021/01/05 11:41:32;;;;;;;37.45;22.00;;;;;;;3.37;80.46;98496.81;4859821;29;20298;-89
2021/01/05 11:44:00;;;;;;;31.08;21.23;;;;;;;3.42;80.09;98485.06;4841228;29;20224;-89
2021/01/05 11:46:29;;;;;;;29.77;19.50;;;;;;;3.35;79.90;98491.56;4843440;29;20257;-88
2021/01/05 12:11:10;;;;;;;29.48;18.13;;;;;;;3.37;80.09;98468.47;4928672;29;20270;-89
2021/01/05 12:38:52;;;;;;;30.38;19.83;;;;;;;3.32;80.52;98454.53;4809612;29;20231;-87
2021/01/05 12:41:18;;;;;;;32.83;19.23;;;;;;;3.37;80.72;98449.84;4681637;29;20229;-84
2021/01/05 12:44:33;;;;;;;29.98;19.35;;;;;;;3.47;80.21;98440.50;4755968;29;20231;-86
2021/01/05 12:47:36;;;;;;;;;;;;;;;;;;;;;
2021/01/05 12:54:21;;;;;;;26.67;17.63;;;;;;;3.47;79.87;98443.16;4873953;29;20271;-87
2021/01/05 13:06:29;;;;;;;26.65;16.98;;;;;;;3.58;79.38;98439.97;4849765;29;20206;-85
2021/01/05 13:08:58;;;;;;;25.80;18.27;;;;;;;3.60;79.27;98441.63;4882526;29;20210;-85
2021/01/05 13:11:40;;;;;;;28.63;19.08;;;;;;;3.68;78.42;98438.59;4881684;29;20219;-86
2021/01/05 13:14:17;;;;;;;28.50;16.70;;;;;;;3.70;78.67;98432.28;4869117;29;20278;-84
2021/01/05 13:16:47;;;;;;;27.17;18.52;;;;;;;3.59;78.59;98437.25;4865369;29;20226;-85
2021/01/05 13:19:22;;;;;;;29.33;18.20;;;;;;;3.69;78.65;98438.53;4844904;29;20733;-85
2021/01/05 13:21:57;;;;;;;26.90;17.27;;;;;;;3.78;78.45;98435.41;4882546;29;20265;-87